Terminal Aerodrome Forecast
Issued by NWS

Home | Current Version | Previous Version | Text Only | Print | Product List | Glossary On
Versions: 1 2 3 4 5 6 7 8 9 10 11 12 13 14 15
000
FTUS46 KHNX 160309 AAA
TAFVIS
TAF AMD
KVIS 160309Z 1603/1624 VRB03KT 4SM HZ SKC
      TEMPO 1612/1615 2SM HZ
     FM161500 31008KT 5SM HZ FEW250
     FM162000 32008KT P6SM FEW250=

USA.gov is the U.S. government's official web portal to all federal, state and local government web resources and services.